Time;durP1;ratioP1;P1;durP2;ratioP2;P2;SDS_P1;SDS_P2;PMS_P1;PMS_P2;Temp;Humidity;BMP_temperature;BMP_pressure;BME280_temperature;BME280_humidity;BME280_pressure;Samples;Min_cycle;Max_cycle;Signal;HPM_P1;HPM_P2
2022/01/03 00:01:18;;;;;;;4.97;3.35;;;;;;;9.56;75.39;98227.98;1726669;83;20975;-42
2022/01/03 00:03:45;;;;;;;4.58;2.85;;;;;;;9.56;75.35;98225.35;1726564;82;21000;-41
2022/01/03 00:06:11;;;;;;;5.40;3.15;;;;;;;9.49;75.33;98216.22;1726802;83;21559;-41
2022/01/03 00:08:43;;;;;;;7.70;3.20;;;;;;;9.49;75.42;98214.91;1726676;83;20999;-41
2022/01/03 00:11:11;;;;;;;6.85;3.10;;;;;;;9.44;75.42;98214.41;1726537;83;21046;-42
2022/01/03 00:13:44;;;;;;;10.58;3.02;;;;;;;9.42;75.79;98211.02;1726668;83;21087;-41
2022/01/03 00:16:10;;;;;;;6.30;3.30;;;;;;;9.40;75.88;98208.52;1726847;83;21011;-41
2022/01/03 00:18:37;;;;;;;4.67;2.87;;;;;;;9.36;75.91;98199.64;1726589;83;21532;-41
2022/01/03 00:21:13;;;;;;;6.60;3.45;;;;;;;9.33;75.88;98216.44;1726712;83;20971;-41
2022/01/03 00:23:42;;;;;;;5.40;2.87;;;;;;;9.27;76.08;98194.53;1726554;83;21010;-42
2022/01/03 00:26:10;;;;;;;4.15;2.98;;;;;;;9.30;76.16;98202.69;1726562;83;21035;-41
2022/01/03 00:28:54;;;;;;;4.92;3.05;;;;;;;9.27;76.22;98196.33;1726520;83;21050;-42
2022/01/03 00:31:20;;;;;;;2.95;2.55;;;;;;;9.23;76.26;98192.59;1726037;83;21041;-41
2022/01/03 00:33:51;;;;;;;4.72;3.10;;;;;;;9.27;76.39;98202.88;1726546;83;21007;-41
2022/01/03 00:36:19;;;;;;;5.97;2.98;;;;;;;9.21;76.44;98201.03;1726519;83;21015;-41
2022/01/03 00:38:45;;;;;;;4.50;2.87;;;;;;;9.23;76.64;98191.75;1726524;83;21007;-41
2022/01/03 00:41:10;;;;;;;4.55;3.10;;;;;;;9.19;76.77;98200.30;1726548;83;21015;-41
2022/01/03 00:43:37;;;;;;;6.83;3.08;;;;;;;9.25;76.70;98183.79;1726520;83;21007;-41
2022/01/03 00:46:03;;;;;;;6.83;2.90;;;;;;;9.15;76.98;98177.85;1726660;83;21007;-41
2022/01/03 00:48:32;;;;;;;7.15;2.65;;;;;;;9.16;76.99;98192.63;1718610;83;20996;-41
2022/01/03 00:51:02;;;;;;;4.10;2.85;;;;;;;9.10;77.01;98186.49;1710846;83;21011;-42
2022/01/03 00:53:28;;;;;;;5.67;3.00;;;;;;;9.12;77.19;98189.85;1710917;84;21496;-41
2022/01/03 00:56:07;;;;;;;5.90;3.00;;;;;;;9.14;77.12;98198.94;1711086;84;21035;-41
2022/01/03 00:58:41;;;;;;;5.12;2.72;;;;;;;9.11;77.25;98188.16;1695485;84;21504;-41
2022/01/03 01:01:07;;;;;;;6.47;2.80;;;;;;;9.10;77.37;98170.76;1709707;84;21004;-42
2022/01/03 01:03:37;;;;;;;5.55;2.80;;;;;;;9.09;77.25;98174.79;1710892;83;21028;-42
2022/01/03 01:06:07;;;;;;;5.85;3.15;;;;;;;9.05;77.42;98178.09;1710928;84;20980;-41
2022/01/03 01:08:37;;;;;;;5.60;3.25;;;;;;;8.98;77.43;98171.09;1710997;84;20968;-41
2022/01/03 01:11:07;;;;;;;5.72;2.90;;;;;;;9.02;77.46;98190.09;1710999;84;20976;-41
2022/01/03 01:13:35;;;;;;;6.17;3.20;;;;;;;9.01;77.52;98188.42;1710953;83;21019;-41
2022/01/03 01:16:06;;;;;;;8.45;2.87;;;;;;;8.97;77.76;98188.27;1710870;84;21011;-42
2022/01/03 01:18:36;;;;;;;4.47;2.95;;;;;;;8.97;77.84;98194.34;1710957;84;21040;-41
2022/01/03 01:21:03;;;;;;;4.28;3.12;;;;;;;8.92;78.07;98195.59;1710726;84;20991;-41
2022/01/03 01:23:29;;;;;;;3.30;3.00;;;;;;;8.89;78.25;98196.61;1710910;84;21039;-41
2022/01/03 01:28:20;;;;;;;4.85;2.80;;;;;;;8.90;78.23;98196.16;1710866;84;20987;-42
2022/01/03 01:30:50;;;;;;;7.70;3.22;;;;;;;8.85;78.38;98188.59;1710986;83;21509;-41
2022/01/03 01:33:17;;;;;;;8.78;3.25;;;;;;;8.83;78.48;98196.55;1710742;84;21040;-41
2022/01/03 01:35:52;;;;;;;7.37;3.17;;;;;;;8.81;78.62;98182.70;1711150;84;21007;-41
2022/01/03 01:38:23;;;;;;;4.97;3.15;;;;;;;8.76;78.58;98184.78;1710878;84;20968;-41
2022/01/03 01:40:57;;;;;;;4.47;3.08;;;;;;;8.75;78.76;98185.74;1710837;83;21034;-41
2022/01/03 01:43:36;;;;;;;4.40;3.00;;;;;;;8.76;78.61;98187.88;1711145;84;21028;-41
2022/01/03 01:46:10;;;;;;;4.97;3.42;;;;;;;8.72;78.75;98185.94;1710891;83;21003;-41
2022/01/03 01:48:38;;;;;;;5.90;3.05;;;;;;;8.74;78.76;98181.42;1716722;83;21012;-41
2022/01/03 01:51:07;;;;;;;5.20;3.08;;;;;;;8.67;79.15;98185.39;1724429;82;21477;-42
2022/01/03 01:53:38;;;;;;;4.83;3.08;;;;;;;8.66;79.25;98195.52;1724516;83;20982;-41
2022/01/03 01:56:15;;;;;;;7.83;3.22;;;;;;;8.63;79.48;98193.92;1724254;82;21055;-41
2022/01/03 01:59:01;;;;;;;4.95;3.12;;;;;;;8.60;79.61;98199.38;1723549;82;21496;-41
2022/01/03 02:01:38;;;;;;;13.62;4.10;;;;;;;8.61;79.75;98185.80;1724509;82;20972;-41
2022/01/03 02:04:12;;;;;;;7.00;3.40;;;;;;;8.57;80.15;98185.16;1711927;83;20984;-41
2022/01/03 02:06:47;;;;;;;6.58;3.10;;;;;;;8.60;80.01;98190.66;1684694;82;20995;-41
2022/01/03 02:09:40;;;;;;;5.67;3.00;;;;;;;8.62;80.18;98190.08;1724490;82;21452;-41
2022/01/03 02:12:13;;;;;;;4.62;3.25;;;;;;;8.60;80.17;98183.66;1704972;83;20991;-41
2022/01/03 02:14:40;;;;;;;6.00;3.10;;;;;;;8.69;79.90;98176.95;1724451;82;21003;-40
2022/01/03 02:17:06;;;;;;;7.12;3.37;;;;;;;8.67;80.11;98171.45;1724496;82;21007;-40
2022/01/03 02:19:40;;;;;;;7.80;3.60;;;;;;;8.64;80.06;98182.95;1724434;83;20991;-40
2022/01/03 02:22:10;;;;;;;3.90;2.80;;;;;;;8.72;79.90;98177.23;1724459;82;21006;-40
2022/01/03 02:24:36;;;;;;;6.03;3.20;;;;;;;8.70;80.08;98175.19;1724372;82;21467;-40
2022/01/03 02:27:02;;;;;;;6.92;2.83;;;;;;;8.70;80.03;98157.68;1724448;82;21027;-40
2022/01/03 02:29:28;;;;;;;6.50;2.80;;;;;;;8.68;80.14;98153.45;1724460;82;21030;-41
2022/01/03 02:31:54;;;;;;;4.92;2.85;;;;;;;8.68;80.09;98157.39;1724442;82;20971;-39
2022/01/03 02:34:20;;;;;;;4.40;2.77;;;;;;;8.68;80.12;98162.63;1724485;82;20995;-40
2022/01/03 02:36:46;;;;;;;10.68;2.92;;;;;;;8.68;80.12;98153.45;1724458;82;21655;-41
2022/01/03 02:39:14;;;;;;;5.33;2.90;;;;;;;8.67;80.05;98159.18;1724387;83;21043;-40
2022/01/03 02:41:39;;;;;;;3.47;2.90;;;;;;;8.70;80.05;98152.44;1704384;80;21686;-40
2022/01/03 02:44:05;;;;;;;5.92;3.08;;;;;;;8.73;80.17;98154.00;1691304;85;21007;-40
2022/01/03 02:46:31;;;;;;;5.62;3.25;;;;;;;8.73;80.01;98161.42;1691277;85;21046;-40
2022/01/03 02:48:57;;;;;;;5.05;3.40;;;;;;;8.72;80.02;98152.34;1691374;85;21481;-40
2022/01/03 02:51:23;;;;;;;5.80;2.95;;;;;;;8.77;79.90;98165.51;1691452;85;21508;-40
2022/01/03 02:53:48;;;;;;;4.85;2.72;;;;;;;8.74;80.11;98157.84;1691481;85;20987;-40
2022/01/03 02:56:14;;;;;;;5.35;3.08;;;;;;;8.80;79.92;98166.63;1691417;85;21050;-40
2022/01/03 02:58:40;;;;;;;6.47;2.90;;;;;;;8.71;80.23;98164.58;1691464;85;21007;-40
2022/01/03 03:01:06;;;;;;;4.22;2.60;;;;;;;8.76;80.04;98169.05;1691392;85;21010;-41
2022/01/03 03:03:32;;;;;;;5.30;2.85;;;;;;;8.78;80.07;98155.38;1691452;85;20975;-41
2022/01/03 03:05:59;;;;;;;5.17;2.47;;;;;;;8.78;80.11;98149.30;1691479;85;21082;-40
2022/01/03 03:08:25;;;;;;;6.28;2.83;;;;;;;8.84;79.94;98154.13;1691551;85;21051;-41
2022/01/03 03:10:51;;;;;;;3.83;2.87;;;;;;;8.84;79.98;98145.81;1691570;85;21015;-41
2022/01/03 03:13:17;;;;;;;2.85;2.55;;;;;;;8.82;79.92;98152.94;1691483;85;20996;-42
2022/01/03 03:15:43;;;;;;;4.40;3.00;;;;;;;8.88;79.88;98145.59;1669910;85;21496;-41
2022/01/03 03:18:10;;;;;;;6.55;3.10;;;;;;;8.84;79.86;98137.09;1691518;85;21002;-41
2022/01/03 03:20:36;;;;;;;5.05;2.87;;;;;;;8.86;79.90;98136.98;1691427;85;21011;-41
2022/01/03 03:23:03;;;;;;;3.65;2.55;;;;;;;8.81;79.97;98126.83;1691503;85;21442;-41
2022/01/03 03:25:33;;;;;;;7.42;3.00;;;;;;;8.82;80.00;98129.34;1691564;85;21500;-41
2022/01/03 03:28:06;;;;;;;7.47;3.00;;;;;;;8.84;79.93;98126.16;1691338;85;20995;-40
2022/01/03 03:30:37;;;;;;;5.58;3.02;;;;;;;8.80;79.87;98117.27;1691436;85;21007;-40
2022/01/03 03:33:19;;;;;;;6.05;2.55;;;;;;;8.82;79.62;98120.17;1691469;85;21485;-40
2022/01/03 03:35:46;;;;;;;3.55;2.80;;;;;;;8.83;79.69;98121.84;1691440;85;21544;-40
2022/01/03 03:38:12;;;;;;;6.35;2.62;;;;;;;8.79;79.72;98116.44;1691549;85;21004;-40
2022/01/03 03:40:39;;;;;;;3.40;2.60;;;;;;;8.80;79.81;98109.41;1691335;85;21014;-41
2022/01/03 03:43:05;;;;;;;7.10;2.60;;;;;;;8.78;79.77;98110.81;1697407;84;21083;-40
2022/01/03 03:45:32;;;;;;;4.70;2.83;;;;;;;8.83;79.66;98110.04;1699015;84;21007;-40
2022/01/03 03:47:58;;;;;;;4.42;2.72;;;;;;;8.79;79.72;98115.12;1698984;84;21006;-40
2022/01/03 03:50:25;;;;;;;4.50;2.50;;;;;;;8.76;79.77;98103.53;1698887;84;20999;-40
2022/01/03 03:52:51;;;;;;;4.70;2.80;;;;;;;8.75;79.82;98107.11;1699081;84;20979;-41
2022/01/03 03:55:17;;;;;;;5.35;2.67;;;;;;;8.79;79.82;98111.20;1698847;84;21018;-41
2022/01/03 03:57:43;;;;;;;5.20;2.55;;;;;;;8.74;79.91;98096.24;1698918;84;21484;-40
2022/01/03 04:00:12;;;;;;;3.50;2.40;;;;;;;8.76;80.00;98093.04;1698858;83;21026;-40
2022/01/03 04:02:38;;;;;;;2.95;2.40;;;;;;;8.69;80.15;98087.01;1698842;84;21567;-40
2022/01/03 04:05:05;;;;;;;3.00;2.58;;;;;;;8.69;80.08;98073.42;1699028;83;21015;-41
2022/01/03 04:07:31;;;;;;;6.33;2.70;;;;;;;8.67;80.22;98077.10;1698937;84;21027;-41
2022/01/03 04:09:57;;;;;;;9.98;3.15;;;;;;;8.65;80.34;98067.55;1698816;84;20987;-40
2022/01/03 04:12:23;;;;;;;4.80;2.62;;;;;;;8.65;80.32;98075.41;1698912;84;21060;-40
2022/01/03 04:14:49;;;;;;;5.37;2.70;;;;;;;8.63;80.53;98080.40;1698869;84;21544;-40
2022/01/03 04:17:15;;;;;;;5.58;2.70;;;;;;;8.62;80.52;98076.09;1698886;84;21866;-40
2022/01/03 04:19:42;;;;;;;5.03;2.42;;;;;;;8.63;80.44;98073.84;1698858;84;21051;-40
2022/01/03 04:22:08;;;;;;;5.27;2.87;;;;;;;8.61;80.50;98077.05;1699061;84;21011;-41
2022/01/03 04:24:33;;;;;;;5.90;3.27;;;;;;;8.58;80.67;98068.06;1698846;84;20975;-40
2022/01/03 04:26:59;;;;;;;9.73;3.50;;;;;;;8.58;80.83;98070.69;1698785;84;20971;-40
2022/01/03 04:29:25;;;;;;;6.87;3.45;;;;;;;8.59;80.73;98073.21;1698935;84;21002;-40
2022/01/03 04:31:51;;;;;;;10.82;3.37;;;;;;;8.63;80.63;98070.75;1698863;84;21034;-40
2022/01/03 04:34:16;;;;;;;9.85;3.92;;;;;;;8.64;80.78;98074.20;1698881;84;21491;-40
2022/01/03 04:36:42;;;;;;;11.85;4.40;;;;;;;8.64;80.79;98088.16;1698843;84;20999;-40
2022/01/03 04:39:08;;;;;;;10.25;3.58;;;;;;;8.63;80.76;98072.06;1698893;84;21066;-40
2022/01/03 04:41:35;;;;;;;10.60;3.95;;;;;;;8.62;80.90;98071.70;1698124;84;21358;-41
2022/01/03 04:44:05;;;;;;;10.58;4.20;;;;;;;8.62;80.95;98066.91;1681322;85;21027;-40
2022/01/03 04:46:29;;;;;;;8.43;3.75;;;;;;;8.60;80.97;98063.11;1680917;85;21504;-40
2022/01/03 04:48:54;;;;;;;8.58;3.27;;;;;;;8.53;81.11;98059.67;1681271;85;21007;-40
2022/01/03 04:51:20;;;;;;;6.35;3.30;;;;;;;8.55;81.04;98057.78;1681201;85;21008;-41
2022/01/03 04:53:46;;;;;;;7.47;3.25;;;;;;;8.54;81.15;98046.95;1681252;85;21008;-41
2022/01/03 04:56:15;;;;;;;6.42;3.10;;;;;;;8.56;81.04;98043.27;1681272;85;20995;-41
2022/01/03 04:58:42;;;;;;;8.85;3.60;;;;;;;8.51;81.43;98037.50;1681200;85;21015;-41
2022/01/03 05:01:08;;;;;;;8.25;3.75;;;;;;;8.55;81.22;98038.99;1681250;85;20984;-41
2022/01/03 05:03:34;;;;;;;13.58;3.80;;;;;;;8.52;81.46;98034.43;1681267;85;21012;-40
2022/01/03 05:06:02;;;;;;;8.03;3.67;;;;;;;8.54;81.45;98027.30;1681205;85;21606;-40
2022/01/03 05:08:30;;;;;;;7.00;4.12;;;;;;;8.47;81.58;98029.96;1681136;85;21011;-41
2022/01/03 05:11:00;;;;;;;9.28;3.83;;;;;;;8.48;81.78;98023.77;1680957;85;21055;-41
2022/01/03 05:13:26;;;;;;;10.20;3.27;;;;;;;8.41;81.91;98022.84;1681019;85;21008;-40
2022/01/03 05:15:51;;;;;;;7.50;4.10;;;;;;;8.48;81.75;98023.77;1681255;85;21477;-41
2022/01/03 05:18:17;;;;;;;9.03;3.72;;;;;;;8.39;81.90;98019.97;1681190;85;21015;-41
2022/01/03 05:20:43;;;;;;;13.25;4.20;;;;;;;8.46;81.93;98019.96;1681454;85;21060;-41
2022/01/03 05:23:08;;;;;;;8.15;3.42;;;;;;;8.41;82.35;98018.08;1681185;85;21007;-40
2022/01/03 05:25:35;;;;;;;7.40;3.75;;;;;;;8.42;82.32;98011.47;1681215;85;21008;-41
2022/01/03 05:28:00;;;;;;;9.28;4.42;;;;;;;8.48;82.01;98009.35;1681229;85;20984;-41
2022/01/03 05:30:26;;;;;;;9.03;4.20;;;;;;;8.50;81.98;98010.11;1681219;85;21450;-40
2022/01/03 05:32:52;;;;;;;6.97;3.95;;;;;;;8.47;82.21;98003.28;1681205;85;21014;-41
2022/01/03 05:35:18;;;;;;;5.72;3.90;;;;;;;8.51;82.39;98007.84;1681114;85;21517;-41
2022/01/03 05:37:43;;;;;;;6.12;3.98;;;;;;;8.55;82.13;98003.62;1681213;85;21012;-41
2022/01/03 05:40:10;;;;;;;7.95;3.58;;;;;;;8.57;82.20;98004.83;1681279;85;21020;-40
2022/01/03 05:42:36;;;;;;;8.93;4.05;;;;;;;8.57;82.19;97999.59;1684410;85;21067;-40
2022/01/03 05:45:04;;;;;;;6.25;4.03;;;;;;;8.56;82.43;98007.07;1691452;85;21050;-39
2022/01/03 05:47:30;;;;;;;9.60;4.05;;;;;;;8.59;82.42;98003.77;1691270;85;21544;-40
2022/01/03 05:49:57;;;;;;;5.95;3.83;;;;;;;8.58;82.48;98006.48;1691654;85;21007;-41
2022/01/03 05:52:23;;;;;;;5.75;3.45;;;;;;;8.60;82.66;98000.67;1691309;85;20992;-40
2022/01/03 05:54:49;;;;;;;6.75;3.30;;;;;;;8.60;82.91;98001.53;1691313;83;21143;-40
2022/01/03 05:57:15;;;;;;;9.50;4.00;;;;;;;8.63;83.09;98005.23;1691388;85;21449;-40
2022/01/03 05:59:40;;;;;;;4.65;2.75;;;;;;;8.66;83.04;97996.34;1691422;85;21010;-40
2022/01/03 06:02:07;;;;;;;7.05;3.77;;;;;;;8.65;83.47;97994.17;1691284;85;20987;-40
2022/01/03 06:04:42;;;;;;;6.00;3.62;;;;;;;8.64;83.77;97990.34;1691304;85;20995;-41
2022/01/03 06:07:07;;;;;;;6.10;3.50;;;;;;;8.60;84.13;97987.57;1690282;85;20975;-40
2022/01/03 06:09:33;;;;;;;5.70;3.50;;;;;;;8.62;83.88;97990.92;1691455;85;21500;-40
2022/01/03 06:11:59;;;;;;;11.73;3.87;;;;;;;8.57;84.06;97980.77;1691251;85;20980;-40
2022/01/03 06:14:25;;;;;;;10.25;3.90;;;;;;;8.50;84.20;97980.81;1691272;85;21015;-40
2022/01/03 06:16:52;;;;;;;7.58;3.92;;;;;;;8.42;84.92;97976.55;1691240;85;21010;-40
2022/01/03 06:19:18;;;;;;;8.83;4.58;;;;;;;8.39;84.94;97981.50;1691512;85;21465;-41
2022/01/03 06:21:45;;;;;;;8.40;4.08;;;;;;;8.36;84.92;97980.39;1691357;83;21509;-40
2022/01/03 06:24:13;;;;;;;9.85;4.20;;;;;;;8.27;85.85;97983.63;1691329;85;21002;-40
2022/01/03 06:26:41;;;;;;;8.18;4.33;;;;;;;8.24;85.96;97984.69;1691425;85;20987;-42
2022/01/03 06:29:09;;;;;;;9.05;4.20;;;;;;;8.20;85.72;97984.98;1691423;85;21014;-40
2022/01/03 06:31:36;;;;;;;6.72;5.00;;;;;;;8.15;86.34;97990.53;1691433;83;21426;-40
2022/01/03 06:34:03;;;;;;;8.55;4.67;;;;;;;8.13;86.76;97986.33;1691450;85;21014;-40
2022/01/03 06:36:28;;;;;;;7.15;4.55;;;;;;;8.11;86.86;97989.04;1691543;85;21014;-40
2022/01/03 06:38:55;;;;;;;8.80;4.75;;;;;;;8.07;87.02;97990.19;1691484;83;21483;-40
2022/01/03 06:41:21;;;;;;;7.62;5.03;;;;;;;8.06;87.12;97993.28;1669849;85;21014;-40
2022/01/03 06:43:46;;;;;;;9.00;5.22;;;;;;;8.01;87.77;97986.20;1684348;84;21031;-41
2022/01/03 06:46:12;;;;;;;9.28;4.70;;;;;;;8.03;87.63;97986.94;1681341;85;21051;-40
2022/01/03 06:48:38;;;;;;;7.70;4.45;;;;;;;7.99;88.50;97983.33;1681313;85;21015;-40
2022/01/03 06:51:04;;;;;;;8.73;4.22;;;;;;;7.98;88.35;97992.94;1681319;85;21014;-40
2022/01/03 06:53:30;;;;;;;6.87;3.75;;;;;;;7.91;89.56;97998.20;1681256;85;21011;-40
2022/01/03 06:55:56;;;;;;;8.85;4.20;;;;;;;7.85;89.81;97996.83;1681362;85;21499;-40
2022/01/03 06:58:22;;;;;;;7.10;4.22;;;;;;;7.80;90.28;98004.13;1681258;85;21051;-41
2022/01/03 07:00:48;;;;;;;7.25;3.50;;;;;;;7.77;90.82;98005.66;1681398;85;20968;-40
2022/01/03 07:03:14;;;;;;;7.70;3.92;;;;;;;7.72;90.98;98009.51;1681325;85;21442;-40
2022/01/03 07:05:40;;;;;;;7.12;3.90;;;;;;;7.73;90.78;98008.11;1681290;85;20979;-40
2022/01/03 07:08:06;;;;;;;5.28;3.75;;;;;;;7.70;90.17;98006.98;1681300;85;21007;-40
2022/01/03 07:10:32;;;;;;;5.33;3.98;;;;;;;7.66;91.25;98018.59;1681300;85;21022;-40
2022/01/03 07:12:59;;;;;;;5.65;4.17;;;;;;;7.64;90.94;98016.52;1681231;85;21015;-40
2022/01/03 07:20:54;;;;;;;6.03;3.83;;;;;;;7.54;92.31;98024.12;1681417;85;21027;-40
2022/01/03 07:23:21;;;;;;;8.85;4.40;;;;;;;7.53;91.84;98024.21;1681448;85;21019;-40
2022/01/03 07:25:47;;;;;;;;;;;;;;;7.45;92.60;98028.15;1684021;85;21020;-40
2022/01/03 07:28:15;;;;;;;8.15;4.10;;;;;;;7.44;93.22;98012.55;1681350;85;20116;-40
2022/01/03 07:30:40;;;;;;;6.12;3.90;;;;;;;7.45;92.69;98016.86;1681410;85;21039;-40
2022/01/03 07:33:06;;;;;;;6.97;3.90;;;;;;;7.41;93.79;98022.75;1681339;85;21003;-40
2022/01/03 07:35:32;;;;;;;5.78;3.40;;;;;;;7.41;93.13;98020.13;1681315;85;21451;-40
2022/01/03 07:37:59;;;;;;;7.08;3.60;;;;;;;7.44;92.84;98027.80;1681247;85;21058;-41
2022/01/03 07:40:25;;;;;;;5.78;3.60;;;;;;;7.46;93.38;98028.53;1681368;85;21030;-40
2022/01/03 07:42:51;;;;;;;5.42;3.50;;;;;;;7.43;93.71;98042.27;1684789;83;21066;-40
2022/01/03 07:45:18;;;;;;;7.12;3.10;;;;;;;7.38;93.64;98052.17;1698879;84;21015;-40
2022/01/03 07:47:44;;;;;;;5.75;3.20;;;;;;;7.32;94.94;98040.33;1698886;84;21010;-40
2022/01/03 07:50:12;;;;;;;6.35;3.35;;;;;;;7.27;94.67;98036.67;1699005;84;21464;-40
2022/01/03 07:52:38;;;;;;;3.92;3.00;;;;;;;7.22;94.09;98033.52;1698797;84;21144;-40
2022/01/03 07:55:07;;;;;;;4.47;3.52;;;;;;;7.19;93.71;98053.80;1699176;84;21504;-39
2022/01/03 07:57:34;;;;;;;8.85;4.25;;;;;;;7.04;94.08;98062.94;1698887;84;21018;-39
2022/01/03 08:00:00;;;;;;;4.30;2.93;;;;;;;7.01;94.20;98050.05;1699118;84;21500;-40
2022/01/03 08:02:28;;;;;;;2.92;1.95;;;;;;;6.99;94.24;98048.47;1698845;84;21010;-40
2022/01/03 08:04:53;;;;;;;3.77;1.70;;;;;;;6.94;93.27;98062.27;1698678;84;20995;-39
2022/01/03 08:07:19;;;;;;;2.98;2.33;;;;;;;6.85;92.51;98039.67;1698796;84;21468;-39
2022/01/03 08:09:45;;;;;;;3.72;2.85;;;;;;;6.73;92.42;98037.78;1697880;84;21046;-39
2022/01/03 08:12:12;;;;;;;2.92;1.92;;;;;;;6.71;92.63;98023.97;1697590;84;21053;-39
2022/01/03 08:14:38;;;;;;;4.58;2.00;;;;;;;6.68;93.12;98022.88;1696804;83;21104;-39
2022/01/03 08:17:05;;;;;;;3.37;2.27;;;;;;;6.73;92.79;98028.64;1693074;84;21011;-39
2022/01/03 08:19:31;;;;;;;;;;;;;;;6.70;93.15;98027.06;1710988;83;21456;-40
2022/01/03 08:21:57;;;;;;;2.83;2.20;;;;;;;6.71;93.37;98021.36;1725740;83;20128;-40
2022/01/03 08:24:23;;;;;;;3.65;2.50;;;;;;;6.73;92.99;98012.96;1725731;83;20991;-40
2022/01/03 08:26:49;;;;;;;3.35;2.25;;;;;;;6.74;93.02;98017.27;1725799;83;21579;-40
2022/01/03 08:29:15;;;;;;;5.62;3.10;;;;;;;6.75;93.17;98014.18;1704966;83;21042;-41
2022/01/03 08:31:41;;;;;;;5.53;3.83;;;;;;;6.76;93.67;98010.17;1698409;84;20991;-40
2022/01/03 08:34:07;;;;;;;2.72;1.87;;;;;;;6.81;93.56;98016.44;1698477;84;21006;-42
2022/01/03 08:36:33;;;;;;;2.67;1.80;;;;;;;6.83;93.94;98009.34;1698469;84;20979;-40
2022/01/03 08:38:59;;;;;;;5.67;4.00;;;;;;;6.84;94.44;98011.87;1698558;84;21006;-39
2022/01/03 08:41:25;;;;;;;4.70;2.50;;;;;;;6.90;94.58;98012.80;1698512;84;20979;-40
2022/01/03 08:43:52;;;;;;;2.70;2.05;;;;;;;6.95;94.16;98007.30;1692310;84;21541;-40
2022/01/03 08:46:19;;;;;;;3.33;2.80;;;;;;;7.01;94.93;98011.31;1684150;85;21008;-41
2022/01/03 08:48:46;;;;;;;8.75;3.00;;;;;;;7.01;94.86;98012.63;1684040;85;20972;-41
2022/01/03 08:51:12;;;;;;;5.53;4.03;;;;;;;7.04;95.11;98010.66;1683917;85;21490;-40
2022/01/03 08:53:37;;;;;;;6.72;4.12;;;;;;;7.09;95.31;98014.28;1683924;85;21007;-41
2022/01/03 08:56:04;;;;;;;5.67;2.92;;;;;;;7.11;95.57;98005.42;1683816;85;21059;-41
2022/01/03 08:58:30;;;;;;;3.75;3.00;;;;;;;7.16;95.82;98002.52;1684038;85;21008;-41
2022/01/03 09:00:56;;;;;;;4.30;2.75;;;;;;;7.17;95.97;97994.19;1683802;85;21058;-41
2022/01/03 09:03:22;;;;;;;4.40;2.80;;;;;;;7.23;95.47;98004.29;1683781;85;21487;-39
2022/01/03 09:05:49;;;;;;;3.85;2.55;;;;;;;7.21;96.06;98000.94;1683887;85;21086;-39
2022/01/03 09:08:17;;;;;;;3.52;2.67;;;;;;;7.25;95.87;98010.26;1683991;85;21470;-39
2022/01/03 09:10:43;;;;;;;3.42;2.65;;;;;;;7.27;95.56;98009.22;1683953;85;21481;-39
2022/01/03 09:13:08;;;;;;;3.65;2.40;;;;;;;7.30;95.28;97999.88;1683781;85;21052;-40
2022/01/03 09:15:36;;;;;;;3.98;2.55;;;;;;;7.27;95.53;98005.77;1683794;85;21485;-41
2022/01/03 09:18:02;;;;;;;6.55;2.90;;;;;;;7.34;95.08;98004.93;1690002;84;21499;-40
2022/01/03 09:20:28;;;;;;;5.62;3.15;;;;;;;7.34;94.94;98003.62;1693986;84;21010;-39
2022/01/03 09:23:03;;;;;;;2.52;2.25;;;;;;;7.35;94.98;97993.52;1688512;84;21035;-40
2022/01/03 09:30:52;;;;;;;4.12;1.92;;;;;;;7.26;95.92;97989.25;1689656;84;21042;-40
2022/01/03 09:33:19;;;;;;;4.65;3.00;;;;;;;7.33;95.24;97984.48;1688326;84;20999;-40
2022/01/03 09:35:45;;;;;;;6.97;2.95;;;;;;;7.28;95.50;97982.62;1682718;84;21002;-40
2022/01/03 09:38:11;;;;;;;4.92;2.10;;;;;;;7.34;95.29;97987.93;1684833;84;20976;-40
2022/01/03 09:40:41;;;;;;;3.45;2.25;;;;;;;7.35;95.34;97985.22;1686837;84;21491;-42
2022/01/03 09:43:09;;;;;;;7.92;3.83;;;;;;;7.38;94.93;97978.95;1690541;83;20983;-39
2022/01/03 09:45:37;;;;;;;5.55;3.02;;;;;;;7.37;94.86;97969.41;1697259;84;20987;-42
2022/01/03 09:48:04;;;;;;;;;;;;;;;7.37;94.82;97978.11;1700621;84;21084;-43
2022/01/03 09:50:34;;;;;;;;;;;;;;;7.26;95.09;97984.50;1701960;83;20569;-40
2022/01/03 09:53:02;;;;;;;4.20;3.00;;;;;;;7.29;95.02;97991.68;1692957;84;20213;-40
2022/01/03 09:55:30;;;;;;;6.55;3.33;;;;;;;7.25;94.98;97961.41;1695606;84;21338;-39
2022/01/03 09:57:56;;;;;;;4.92;1.80;;;;;;;7.24;95.17;97979.36;1692759;84;21441;-39
2022/01/03 10:00:23;;;;;;;7.30;4.15;;;;;;;7.20;95.30;97981.77;1699646;84;21466;-39
2022/01/03 10:02:51;;;;;;;5.60;2.93;;;;;;;7.11;95.61;97973.19;1695587;84;20963;-41
2022/01/03 10:05:18;;;;;;;5.75;2.72;;;;;;;7.08;95.83;97975.55;1697411;83;21034;-41
2022/01/03 10:07:45;;;;;;;5.10;2.50;;;;;;;7.08;95.56;97979.47;1698255;83;21031;-41
2022/01/03 10:10:12;;;;;;;2.92;2.20;;;;;;;6.98;95.42;97987.49;1696947;84;20981;-41
2022/01/03 10:12:39;;;;;;;3.45;2.22;;;;;;;6.95;95.07;97972.47;1695122;83;20995;-41
2022/01/03 10:15:08;;;;;;;2.87;1.95;;;;;;;6.96;94.83;97968.45;1694126;84;21051;-39
2022/01/03 10:17:37;;;;;;;4.00;2.87;;;;;;;6.91;94.63;97968.76;1694469;83;21003;-41
2022/01/03 10:20:06;;;;;;;2.95;1.95;;;;;;;6.81;94.56;97968.11;1696381;83;20989;-40
2022/01/03 10:22:34;;;;;;;5.03;1.70;;;;;;;6.97;94.45;97962.75;1694991;84;21070;-40
2022/01/03 10:25:23;;;;;;;3.20;2.10;;;;;;;6.96;93.98;97968.45;1696866;83;21071;-43
2022/01/03 10:27:55;;;;;;;3.12;1.80;;;;;;;7.02;94.02;97964.17;1697687;84;21061;-39
2022/01/03 10:30:42;;;;;;;3.35;2.05;;;;;;;7.01;94.06;97965.58;1696325;83;20966;-41
2022/01/03 10:33:17;;;;;;;5.50;3.02;;;;;;;7.01;94.08;97985.17;1696257;84;21066;-40
2022/01/03 10:35:48;;;;;;;4.37;3.00;;;;;;;6.99;94.02;97990.97;1699142;84;20997;-39
2022/01/03 10:38:45;;;;;;;5.50;3.50;;;;;;;6.97;93.86;97984.97;1691460;83;21476;-43
2022/01/03 10:41:20;;;;;;;4.37;2.55;;;;;;;6.95;93.75;97990.31;1695947;84;21863;-41
2022/01/03 10:43:56;;;;;;;5.37;2.83;;;;;;;7.00;93.69;97979.56;1697638;83;21516;-43
2022/01/03 10:46:26;;;;;;;4.28;3.15;;;;;;;6.94;93.74;97974.25;1695093;83;21022;-42
2022/01/03 10:48:56;;;;;;;4.42;2.87;;;;;;;6.90;94.13;97974.07;1695478;84;21022;-41
2022/01/03 10:51:28;;;;;;;3.80;2.95;;;;;;;6.94;94.09;97979.47;1694270;84;21315;-42
2022/01/03 10:53:56;;;;;;;3.47;2.17;;;;;;;6.97;93.57;97977.12;1695770;84;21002;-42
2022/01/03 10:56:30;;;;;;;5.65;3.15;;;;;;;6.97;93.45;97977.12;1698456;83;21474;-42
2022/01/03 10:59:01;;;;;;;9.20;4.47;;;;;;;6.87;94.03;97973.77;1695590;84;21543;-41
2022/01/03 11:01:30;;;;;;;7.28;3.75;;;;;;;6.94;93.94;97974.72;1692636;83;21029;-41
2022/01/03 11:04:00;;;;;;;12.18;7.70;;;;;;;6.94;94.04;97978.17;1695977;84;22062;-42
2022/01/03 11:11:48;;;;;;;7.28;4.25;;;;;;;6.83;94.10;97974.91;1696768;83;21607;-44
2022/01/03 11:14:36;;;;;;;3.40;2.58;;;;;;;6.85;94.13;97978.73;1697804;83;20987;-41
2022/01/03 11:17:21;;;;;;;6.62;3.70;;;;;;;6.84;94.39;97976.59;1696510;84;20974;-44
2022/01/03 11:19:47;;;;;;;4.58;3.40;;;;;;;6.87;94.22;97977.70;1698026;84;21528;-40
2022/01/03 11:22:30;;;;;;;2.65;2.35;;;;;;;6.88;94.40;97971.55;1698072;84;21056;-41
2022/01/03 11:24:56;;;;;;;2.15;1.55;;;;;;;6.86;94.44;97981.26;1693961;83;20986;-40
2022/01/03 11:27:22;;;;;;;2.10;1.50;;;;;;;6.82;94.69;97965.84;1697819;84;21509;-40
2022/01/03 11:29:48;;;;;;;4.35;2.83;;;;;;;6.72;95.43;97975.55;1698907;84;21026;-41
2022/01/03 11:32:14;;;;;;;6.03;3.35;;;;;;;6.65;95.79;97967.72;1694758;84;21073;-40
2022/01/03 11:34:42;;;;;;;3.72;2.90;;;;;;;6.65;96.22;97981.25;1697009;84;21034;-42
2022/01/03 11:37:09;;;;;;;4.30;2.40;;;;;;;6.64;95.96;97970.41;1696673;83;21045;-40
2022/01/03 11:39:36;;;;;;;3.77;2.08;;;;;;;6.59;95.81;97972.48;1695942;83;21009;-40
2022/01/03 11:42:02;;;;;;;;;;;;;;;6.52;96.17;97975.45;1698131;84;21497;-44
2022/01/03 11:44:28;;;;;;;2.87;2.10;;;;;;;6.47;96.53;97983.19;1697398;82;20468;-39
2022/01/03 11:46:54;;;;;;;2.60;1.90;;;;;;;6.52;96.18;97972.84;1695032;84;21026;-42
2022/01/03 11:49:20;;;;;;;2.87;1.72;;;;;;;6.50;95.96;97986.45;1696465;83;21011;-42
2022/01/03 11:51:47;;;;;;;3.55;2.30;;;;;;;6.51;95.86;97992.06;1696915;84;20985;-40
2022/01/03 11:54:14;;;;;;;2.00;1.80;;;;;;;6.51;95.90;97995.13;1697721;84;20990;-41
2022/01/03 11:56:45;;;;;;;2.60;1.85;;;;;;;6.51;95.96;98000.34;1696014;84;20986;-41
2022/01/03 12:04:41;;;;;;;7.47;4.55;;;;;;;6.31;96.22;98011.97;1694400;83;20994;-40
2022/01/03 12:07:13;;;;;;;10.63;5.47;;;;;;;6.20;97.12;98026.95;1694895;84;21010;-41
2022/01/03 12:09:43;;;;;;;7.78;4.83;;;;;;;6.21;97.46;98030.42;1694445;84;20981;-40